Time;durP1;ratioP1;P1;durP2;ratioP2;P2;SDS_P1;SDS_P2;PMS_P1;PMS_P2;Temp;Humidity;BMP_temperature;BMP_pressure;BME280_temperature;BME280_humidity;BME280_pressure;Samples;Min_cycle;Max_cycle;Signal;HPM_P1;HPM_P2
2023/10/27 03:00:44;;;;;;;1999.90;999.90;;;9.40;99.90;;;;;;5859946;23;20485;-78
2023/10/27 03:03:10;;;;;;;1999.90;999.90;;;9.40;99.90;;;;;;4993195;28;20050;-78
2023/10/27 03:05:36;;;;;;;1999.90;999.90;;;9.40;99.90;;;;;;4993167;28;20034;-78
2023/10/27 03:08:03;;;;;;;1999.90;999.90;;;9.40;99.90;;;;;;4992893;28;20108;-78
2023/10/27 03:10:28;;;;;;;1999.90;999.90;;;9.40;99.90;;;;;;4993049;28;20046;-78
2023/10/27 03:12:54;;;;;;;1999.90;999.90;;;9.40;99.90;;;;;;4976755;28;20493;-76
2023/10/27 03:15:20;;;;;;;1999.90;999.90;;;9.40;99.90;;;;;;4992740;28;20129;-78
2023/10/27 03:17:46;;;;;;;1999.90;999.90;;;9.40;99.90;;;;;;4976744;28;20112;-79
2023/10/27 03:20:12;;;;;;;1999.90;999.90;;;9.40;99.90;;;;;;4992786;28;20042;-78
2023/10/27 03:22:38;;;;;;;1999.90;999.90;;;9.40;99.90;;;;;;4992658;28;20062;-78
2023/10/27 03:25:04;;;;;;;1999.90;999.90;;;9.40;99.90;;;;;;4976398;28;20121;-79
2023/10/27 03:27:32;;;;;;;1999.90;999.90;;;9.40;99.90;;;;;;4992163;28;20173;-78
2023/10/27 03:29:58;;;;;;;1999.90;999.90;;;9.40;99.90;;;;;;4992740;28;20065;-77
2023/10/27 03:32:23;;;;;;;1999.90;999.90;;;9.40;99.90;;;;;;4992393;28;20042;-78
2023/10/27 03:34:49;;;;;;;1999.90;999.90;;;9.50;99.90;;;;;;4992559;28;20176;-78
2023/10/27 03:37:15;;;;;;;1999.90;999.90;;;9.50;99.90;;;;;;4992414;28;20042;-78
2023/10/27 03:39:42;;;;;;;1999.90;999.90;;;9.50;99.90;;;;;;4992245;28;20050;-77
2023/10/27 03:42:08;;;;;;;1999.90;999.90;;;9.50;99.90;;;;;;4976128;28;20486;-78
2023/10/27 03:44:35;;;;;;;1999.90;999.90;;;9.50;99.90;;;;;;4992448;28;20045;-78
2023/10/27 03:47:00;;;;;;;1999.90;999.90;;;9.50;99.90;;;;;;4992349;28;20406;-77
2023/10/27 03:49:27;;;;;;;1999.90;999.90;;;9.50;99.90;;;;;;4992679;28;20039;-77
2023/10/27 03:51:53;;;;;;;1999.90;999.90;;;9.50;99.90;;;;;;4992213;28;20042;-77
2023/10/27 03:54:19;;;;;;;1999.90;999.90;;;9.50;99.90;;;;;;4992340;28;20043;-78
2023/10/27 03:56:45;;;;;;;1999.90;999.90;;;9.50;99.90;;;;;;4992328;28;20047;-78
2023/10/27 03:59:10;;;;;;;1999.90;999.90;;;9.50;99.90;;;;;;4976144;28;20088;-78
2023/10/27 04:01:40;;;;;;;1999.90;999.90;;;9.50;99.90;;;;;;4992013;28;20030;-78
2023/10/27 04:04:06;;;;;;;1999.90;999.90;;;9.50;99.90;;;;;;4992595;28;20042;-78
2023/10/27 04:06:31;;;;;;;1999.90;999.90;;;9.50;99.90;;;;;;4992194;28;20038;-78
2023/10/27 04:08:58;;;;;;;1999.90;999.90;;;9.50;99.90;;;;;;4992214;28;20428;-78
2023/10/27 04:11:24;;;;;;;1999.90;999.90;;;9.50;99.90;;;;;;4992123;28;20046;-78
2023/10/27 04:13:49;;;;;;;1999.90;999.90;;;9.50;99.90;;;;;;4992184;28;20092;-78
2023/10/27 04:16:15;;;;;;;1999.90;999.90;;;9.50;99.90;;;;;;4992146;28;20133;-79
2023/10/27 04:18:40;;;;;;;1999.90;999.90;;;9.50;99.90;;;;;;4992386;28;20149;-78
2023/10/27 04:21:06;;;;;;;1999.90;999.90;;;9.50;99.90;;;;;;4991879;28;20178;-78
2023/10/27 04:23:32;;;;;;;1999.90;999.90;;;9.50;99.90;;;;;;4992073;28;20046;-78
2023/10/27 04:25:57;;;;;;;1999.90;999.90;;;9.50;99.90;;;;;;4992217;28;20038;-82
2023/10/27 04:28:23;;;;;;;1999.90;999.90;;;9.50;99.90;;;;;;4975838;28;20046;-79
2023/10/27 04:30:49;;;;;;;1999.90;999.90;;;9.40;99.90;;;;;;4975784;28;20049;-79
2023/10/27 04:33:15;;;;;;;1999.90;999.90;;;9.50;99.90;;;;;;4991966;28;20053;-79
2023/10/27 04:35:42;;;;;;;1999.90;999.90;;;9.50;99.90;;;;;;4992240;28;20065;-79
2023/10/27 04:38:08;;;;;;;1999.90;999.90;;;9.40;99.90;;;;;;4992229;28;20529;-79
2023/10/27 04:40:34;;;;;;;1999.90;999.90;;;9.50;99.90;;;;;;4994806;28;20122;-79
2023/10/27 04:43:00;;;;;;;1999.90;999.90;;;9.40;99.90;;;;;;4995781;28;20054;-79
2023/10/27 04:45:26;;;;;;;1999.90;999.90;;;9.50;99.90;;;;;;4995471;28;20136;-79
2023/10/27 04:47:52;;;;;;;1999.90;999.90;;;9.40;99.90;;;;;;4996440;28;20073;-78
2023/10/27 04:50:18;;;;;;;1999.90;999.90;;;9.40;99.90;;;;;;4995312;28;20078;-79
2023/10/27 04:52:45;;;;;;;1999.90;999.90;;;9.40;99.90;;;;;;4995308;28;20084;-78
2023/10/27 04:55:11;;;;;;;1999.90;999.90;;;9.40;99.90;;;;;;4995596;28;20426;-79
2023/10/27 04:57:36;;;;;;;1999.90;999.90;;;9.40;99.90;;;;;;4995449;28;20133;-79
2023/10/27 05:00:07;;;;;;;1999.90;999.90;;;9.40;99.90;;;;;;4995079;28;20129;-78
2023/10/27 05:02:33;;;;;;;1999.90;999.90;;;9.40;99.90;;;;;;4995369;28;20405;-79
2023/10/27 05:04:59;;;;;;;1999.90;999.90;;;9.40;99.90;;;;;;4995206;28;20125;-79
2023/10/27 05:07:25;;;;;;;1999.90;999.90;;;9.40;99.90;;;;;;4995039;28;20117;-79
2023/10/27 05:09:51;;;;;;;1999.90;999.90;;;9.40;99.90;;;;;;4995302;28;20048;-79
2023/10/27 05:12:17;;;;;;;1999.90;999.90;;;9.40;99.90;;;;;;4994957;28;20039;-79
2023/10/27 05:14:43;;;;;;;1999.90;999.90;;;9.40;99.90;;;;;;4995341;28;20393;-79
2023/10/27 05:17:09;;;;;;;1999.90;999.90;;;9.40;99.90;;;;;;4994882;28;20043;-79
2023/10/27 05:19:35;;;;;;;1999.90;999.90;;;9.40;99.90;;;;;;4994714;28;20137;-79
2023/10/27 05:22:04;;;;;;;1999.90;999.90;;;9.40;99.90;;;;;;4994916;28;20050;-77
2023/10/27 05:24:31;;;;;;;1999.90;999.90;;;9.30;99.90;;;;;;4994587;28;20045;-79
2023/10/27 05:26:56;;;;;;;1999.90;999.90;;;9.30;99.90;;;;;;4994625;28;20513;-78
2023/10/27 05:29:23;;;;;;;1999.90;999.90;;;9.30;99.90;;;;;;4994561;28;20082;-78
2023/10/27 05:31:49;;;;;;;1999.90;999.90;;;9.30;99.90;;;;;;4996110;28;20034;-78
2023/10/27 05:34:15;;;;;;;1999.90;999.90;;;9.30;99.90;;;;;;4994499;28;20523;-78
2023/10/27 05:36:41;;;;;;;1999.90;999.90;;;9.30;99.90;;;;;;4994541;28;20053;-79
2023/10/27 05:39:07;;;;;;;1999.90;999.90;;;9.20;99.90;;;;;;4994628;28;20038;-79
2023/10/27 05:41:32;;;;;;;1999.90;999.90;;;9.20;99.90;;;;;;4994272;28;20030;-79
2023/10/27 05:43:58;;;;;;;1999.90;999.90;;;9.20;99.90;;;;;;4994320;28;20034;-79
2023/10/27 05:46:24;;;;;;;1999.90;999.90;;;9.20;99.90;;;;;;4994264;28;20046;-79
2023/10/27 05:48:49;;;;;;;1999.90;999.90;;;9.20;99.90;;;;;;4994282;28;20101;-79
2023/10/27 05:51:15;;;;;;;1999.90;999.90;;;9.20;99.90;;;;;;4993844;28;20039;-79
2023/10/27 05:53:41;;;;;;;1999.90;999.90;;;9.20;99.90;;;;;;4994372;28;20052;-79
2023/10/27 05:56:07;;;;;;;1999.90;999.90;;;9.20;99.90;;;;;;4994132;28;20551;-78
2023/10/27 05:58:33;;;;;;;1999.90;999.90;;;9.10;99.90;;;;;;4994044;28;20045;-78
2023/10/27 06:01:03;;;;;;;1999.90;999.90;;;9.20;99.90;;;;;;4993666;28;20049;-79
2023/10/27 06:03:29;;;;;;;1999.90;999.90;;;9.10;99.90;;;;;;4994228;28;20108;-79
2023/10/27 06:05:54;;;;;;;1999.90;999.90;;;9.20;99.90;;;;;;4993878;28;20039;-79
2023/10/27 06:08:20;;;;;;;1999.90;999.90;;;9.10;99.90;;;;;;4993901;28;20034;-79
2023/10/27 06:10:45;;;;;;;1999.90;999.90;;;9.10;99.90;;;;;;4993932;28;20121;-77
2023/10/27 06:13:13;;;;;;;1999.90;999.90;;;9.10;99.90;;;;;;4993738;28;20081;-80
2023/10/27 06:15:38;;;;;;;1999.90;999.90;;;9.00;99.90;;;;;;4977820;28;20042;-77
2023/10/27 06:18:04;;;;;;;1999.90;999.90;;;9.00;99.90;;;;;;4993739;28;20046;-79
2023/10/27 06:20:29;;;;;;;1999.90;999.90;;;9.00;99.90;;;;;;4993364;28;20380;-79
2023/10/27 06:22:55;;;;;;;1999.90;999.90;;;8.90;99.90;;;;;;4993670;28;20405;-79
2023/10/27 06:25:25;;;;;;;1999.90;999.90;;;8.90;99.90;;;;;;4977513;28;20059;-80
2023/10/27 06:27:52;;;;;;;1999.90;999.90;;;8.90;99.90;;;;;;4994740;28;20378;-79
2023/10/27 06:30:20;;;;;;;1999.90;999.90;;;8.80;99.90;;;;;;4993355;28;20080;-77
2023/10/27 06:32:49;;;;;;;1999.90;999.90;;;8.80;99.90;;;;;;4993569;28;20050;-78
2023/10/27 06:35:15;;;;;;;1999.90;999.90;;;8.80;99.90;;;;;;4993024;28;20502;-78
2023/10/27 06:37:40;;;;;;;1999.90;999.90;;;8.80;99.90;;;;;;4993535;28;20084;-78
2023/10/27 06:40:06;;;;;;;1999.90;999.90;;;8.80;99.90;;;;;;4993106;28;20520;-78
2023/10/27 06:42:33;;;;;;;1999.90;999.90;;;8.70;99.90;;;;;;4993378;28;20478;-78
2023/10/27 06:45:00;;;;;;;1999.90;999.90;;;8.80;99.90;;;;;;4993135;28;20038;-79
2023/10/27 06:47:25;;;;;;;1999.90;999.90;;;8.70;99.90;;;;;;4993531;28;20121;-78
2023/10/27 06:49:51;;;;;;;1999.90;999.90;;;8.80;99.90;;;;;;4993919;28;20482;-78
2023/10/27 06:52:17;;;;;;;1999.90;999.90;;;8.80;99.90;;;;;;4993458;28;20045;-79
2023/10/27 06:54:42;;;;;;;1999.90;999.90;;;8.80;99.90;;;;;;4994405;28;20465;-79
2023/10/27 06:57:08;;;;;;;1999.90;999.90;;;8.80;99.90;;;;;;4993191;28;20046;-79
2023/10/27 06:59:34;;;;;;;1999.90;999.90;;;8.80;99.90;;;;;;4993379;28;20458;-78
2023/10/27 07:01:59;;;;;;;1999.90;999.90;;;8.80;99.90;;;;;;4992109;28;20450;-78
2023/10/27 07:04:25;;;;;;;1999.90;999.90;;;8.80;99.90;;;;;;4993179;28;20048;-79
2023/10/27 07:06:51;;;;;;;1999.90;999.90;;;8.90;99.90;;;;;;4992842;28;20045;-78
2023/10/27 07:09:16;;;;;;;1999.90;999.90;;;8.90;99.90;;;;;;4992835;28;20177;-79
2023/10/27 07:11:42;;;;;;;1999.90;999.90;;;8.90;99.90;;;;;;4992693;28;20045;-79
2023/10/27 07:14:10;;;;;;;1999.90;999.90;;;8.90;99.90;;;;;;4976800;28;20038;-79
2023/10/27 07:16:36;;;;;;;1999.90;999.90;;;9.00;99.90;;;;;;4992671;28;20053;-79
2023/10/27 07:19:01;;;;;;;1999.90;999.90;;;9.00;99.90;;;;;;4992730;28;20042;-79
2023/10/27 07:21:27;;;;;;;1999.90;999.90;;;9.00;99.90;;;;;;4992439;28;20045;-78
2023/10/27 07:23:55;;;;;;;1999.90;999.90;;;9.00;99.90;;;;;;4992518;28;20078;-79
2023/10/27 07:26:21;;;;;;;1999.90;999.90;;;9.10;99.90;;;;;;4992463;28;20050;-78
2023/10/27 07:28:47;;;;;;;1999.90;999.90;;;9.10;99.90;;;;;;4992504;28;20042;-79
2023/10/27 07:31:13;;;;;;;1999.90;999.90;;;9.10;99.90;;;;;;4992428;28;20121;-79
2023/10/27 07:33:39;;;;;;;1999.90;999.90;;;9.10;99.90;;;;;;4992695;28;20447;-79
2023/10/27 07:36:07;;;;;;;1999.90;999.90;;;9.20;99.90;;;;;;4992696;28;20057;-79
2023/10/27 07:38:34;;;;;;;1999.90;999.90;;;9.20;99.90;;;;;;4992486;28;20102;-79
2023/10/27 07:41:00;;;;;;;1999.90;999.90;;;9.20;99.90;;;;;;4992241;28;20050;-79
2023/10/27 07:43:26;;;;;;;1999.90;999.90;;;9.30;99.90;;;;;;4992653;28;20486;-79
2023/10/27 07:45:54;;;;;;;1999.90;999.90;;;9.40;99.90;;;;;;4992339;28;20038;-78
2023/10/27 07:48:20;;;;;;;1999.90;999.90;;;9.30;99.90;;;;;;4992282;28;20050;-78
2023/10/27 07:50:46;;;;;;;1999.90;999.90;;;9.40;99.90;;;;;;4992201;28;20552;-79
2023/10/27 07:53:11;;;;;;;1999.90;999.90;;;9.40;99.90;;;;;;4992274;28;20050;-78
2023/10/27 07:55:37;;;;;;;1999.90;999.90;;;9.40;99.90;;;;;;4992274;28;20065;-79
2023/10/27 07:58:04;;;;;;;1999.90;999.90;;;9.50;99.90;;;;;;4992506;28;20061;-79
2023/10/27 08:00:31;;;;;;;1999.90;999.90;;;9.50;99.90;;;;;;4991956;28;20049;-78
2023/10/27 08:02:57;;;;;;;1999.90;999.90;;;9.50;99.90;;;;;;4992141;28;20034;-78
2023/10/27 08:05:23;;;;;;;1999.90;999.90;;;9.60;99.90;;;;;;4992506;28;20089;-80
2023/10/27 08:07:49;;;;;;;1999.90;999.90;;;9.50;99.90;;;;;;4990796;28;20494;-78
2023/10/27 08:10:16;;;;;;;1999.90;999.90;;;9.60;99.90;;;;;;4972826;28;20049;-78
2023/10/27 08:12:43;;;;;;;1999.90;999.90;;;9.60;99.90;;;;;;4972858;28;20042;-78
2023/10/27 08:15:09;;;;;;;1999.90;999.90;;;9.60;99.90;;;;;;4976771;28;20049;-78
2023/10/27 08:17:36;;;;;;;1999.90;999.90;;;9.60;99.90;;;;;;4976408;28;20043;-79
2023/10/27 08:20:03;;;;;;;1999.90;999.90;;;9.60;99.90;;;;;;4976602;28;20138;-77
2023/10/27 08:22:29;;;;;;;1999.90;999.90;;;9.60;99.90;;;;;;4960336;28;20039;-78
2023/10/27 08:24:55;;;;;;;1999.90;999.90;;;9.60;99.90;;;;;;4976649;28;20089;-78
2023/10/27 08:27:23;;;;;;;1999.90;999.90;;;9.60;99.90;;;;;;4976209;28;20121;-77
2023/10/27 08:29:49;;;;;;;1999.90;999.90;;;9.60;99.90;;;;;;4976877;28;20034;-78
2023/10/27 08:32:15;;;;;;;1999.90;999.90;;;9.60;99.90;;;;;;4976047;28;20121;-78
2023/10/27 08:34:41;;;;;;;1999.90;999.90;;;9.60;99.90;;;;;;4976285;28;20125;-77
2023/10/27 08:37:07;;;;;;;1999.90;999.90;;;9.60;99.90;;;;;;4977487;28;20124;-77
2023/10/27 08:39:33;;;;;;;1999.90;999.90;;;9.60;99.90;;;;;;4976334;28;20074;-77
2023/10/27 08:41:59;;;;;;;1999.90;999.90;;;9.60;99.90;;;;;;4977076;28;20398;-78
2023/10/27 08:44:27;;;;;;;1999.90;999.90;;;9.60;99.90;;;;;;4976350;28;20038;-78
2023/10/27 08:46:55;;;;;;;1999.90;999.90;;;9.60;99.90;;;;;;4975868;28;20068;-78
2023/10/27 08:49:21;;;;;;;1999.90;999.90;;;9.60;99.90;;;;;;4976278;28;20041;-79
2023/10/27 08:51:47;;;;;;;1999.90;999.90;;;9.60;99.90;;;;;;4975786;28;20125;-78
2023/10/27 08:54:13;;;;;;;1999.90;999.90;;;9.60;99.90;;;;;;4976160;28;20121;-77
2023/10/27 08:56:39;;;;;;;1999.90;999.90;;;9.60;99.90;;;;;;4975991;28;20038;-78
2023/10/27 08:59:09;;;;;;;1999.90;999.90;;;9.70;99.90;;;;;;4975750;28;20113;-78
2023/10/27 09:01:35;;;;;;;1999.90;999.90;;;9.70;99.90;;;;;;4975503;28;20490;-79
2023/10/27 09:04:08;;;;;;;1999.90;999.90;;;9.60;99.90;;;;;;4975823;28;20185;-78
2023/10/27 09:06:35;;;;;;;1999.90;999.90;;;9.70;99.90;;;;;;4975452;28;20042;-78
2023/10/27 09:09:01;;;;;;;1999.90;999.90;;;9.70;99.90;;;;;;4976091;28;20053;-78
2023/10/27 09:11:26;;;;;;;1999.90;999.90;;;9.70;99.90;;;;;;4975548;28;20042;-78
2023/10/27 09:13:53;;;;;;;1999.90;999.90;;;9.70;99.90;;;;;;4976018;28;20398;-77
2023/10/27 09:16:25;;;;;;;1999.90;999.90;;;9.70;99.90;;;;;;4976586;28;20042;-77
2023/10/27 09:18:51;;;;;;;1999.90;999.90;;;9.80;99.90;;;;;;4975874;28;20502;-78
2023/10/27 09:21:30;;;;;;;1999.90;999.90;;;9.70;99.90;;;;;;4975117;28;20043;-78
2023/10/27 09:23:56;;;;;;;1999.90;999.90;;;9.80;99.90;;;;;;4975476;28;20047;-78
2023/10/27 09:26:28;;;;;;;1999.90;999.90;;;9.80;99.90;;;;;;4975712;28;20045;-78
2023/10/27 09:29:03;;;;;;;1999.90;999.90;;;9.80;99.90;;;;;;4975681;28;20045;-77
2023/10/27 09:31:35;;;;;;;1999.90;999.90;;;9.80;99.90;;;;;;4975056;28;20122;-78
2023/10/27 09:34:24;;;;;;;1999.90;999.90;;;9.80;99.90;;;;;;4975247;28;20042;-78
2023/10/27 09:36:55;;;;;;;1999.90;999.90;;;9.80;99.90;;;;;;4975163;28;20054;-78
2023/10/27 09:39:24;;;;;;;1999.90;999.90;;;9.90;99.90;;;;;;4975336;28;20087;-78
2023/10/27 09:42:03;;;;;;;1999.90;999.90;;;9.80;99.90;;;;;;4958917;28;20058;-79
2023/10/27 09:45:01;;;;;;;1999.90;999.90;;;9.90;99.90;;;;;;4975053;28;20077;-78
2023/10/27 09:47:37;;;;;;;1999.90;999.90;;;9.90;99.90;;;;;;4975026;28;20043;-79
2023/10/27 09:50:08;;;;;;;1999.90;999.90;;;9.90;99.90;;;;;;4974744;28;20050;-78
2023/10/27 09:52:34;;;;;;;1999.90;999.90;;;9.90;99.90;;;;;;4974562;28;20491;-78
2023/10/27 09:55:02;;;;;;;1999.90;999.90;;;9.90;99.90;;;;;;4974736;28;20039;-78
2023/10/27 09:57:28;;;;;;;1999.90;999.90;;;9.90;99.90;;;;;;4974914;28;20517;-79
2023/10/27 09:59:56;;;;;;;1999.90;999.90;;;9.90;99.90;;;;;;4958417;28;20051;-78
2023/10/27 10:02:23;;;;;;;1999.90;999.90;;;9.90;99.90;;;;;;4958318;28;20042;-78
2023/10/27 10:04:52;;;;;;;1999.90;999.90;;;9.90;99.90;;;;;;4974493;28;20097;-78
2023/10/27 10:07:34;;;;;;;1999.90;999.90;;;9.90;99.90;;;;;;4974494;28;20078;-79
2023/10/27 10:10:15;;;;;;;1999.90;999.90;;;10.00;99.90;;;;;;4974917;28;20155;-79
2023/10/27 10:13:13;;;;;;;1999.90;999.90;;;10.00;99.90;;;;;;4958937;28;20053;-78
2023/10/27 10:15:41;;;;;;;1999.90;999.90;;;10.00;99.90;;;;;;4974573;28;20055;-79
2023/10/27 10:18:27;;;;;;;1999.90;999.90;;;10.00;99.90;;;;;;4974571;28;20514;-79
2023/10/27 10:20:56;;;;;;;1999.90;999.90;;;10.00;99.90;;;;;;4974588;28;20093;-79
2023/10/27 10:23:24;;;;;;;1999.90;999.90;;;10.00;99.90;;;;;;4974580;28;20145;-78
2023/10/27 10:25:57;;;;;;;1999.90;999.90;;;10.00;99.90;;;;;;4974360;28;20097;-79
2023/10/27 10:28:29;;;;;;;1999.90;999.90;;;10.00;99.90;;;;;;4974742;28;20374;-79
2023/10/27 10:31:07;;;;;;;1999.90;999.90;;;10.10;99.90;;;;;;4973816;28;20553;-79
2023/10/27 10:33:34;;;;;;;1999.90;999.90;;;10.10;99.90;;;;;;4974326;28;20465;-79
2023/10/27 10:36:12;;;;;;;1999.90;999.90;;;10.10;99.90;;;;;;4973977;28;20070;-79
2023/10/27 10:38:40;;;;;;;1999.90;999.90;;;10.10;99.90;;;;;;4974362;28;20050;-77
2023/10/27 10:41:05;;;;;;;1999.90;999.90;;;10.10;99.90;;;;;;4973717;28;20126;-79
2023/10/27 10:43:41;;;;;;;1999.90;999.90;;;10.10;99.90;;;;;;4973725;28;20128;-77
2023/10/27 10:46:10;;;;;;;;;;;10.10;99.90;;;;;;4974135;28;20031;-78
2023/10/27 10:48:45;;;;;;;1999.90;999.90;;;10.10;99.90;;;;;;4974508;28;19992;-78
2023/10/27 10:51:16;;;;;;;;;;;10.10;99.90;;;;;;4975108;28;20434;-77
2023/10/27 10:53:43;;;;;;;1999.90;999.90;;;10.10;99.90;;;;;;4958388;28;19918;-78
2023/10/27 10:56:09;;;;;;;1999.90;999.90;;;10.10;99.90;;;;;;4974530;28;20061;-78
2023/10/27 10:58:37;;;;;;;1999.90;999.90;;;10.10;99.90;;;;;;4974887;28;20053;-78
2023/10/27 11:01:03;;;;;;;1999.90;999.90;;;10.10;99.90;;;;;;4973301;28;20051;-78
2023/10/27 11:03:36;;;;;;;1999.90;999.90;;;10.10;99.90;;;;;;4973299;28;20070;-78
2023/10/27 11:06:05;;;;;;;1999.90;999.90;;;10.10;99.90;;;;;;4957131;28;20047;-78
2023/10/27 11:08:34;;;;;;;1999.90;999.90;;;10.10;99.90;;;;;;4973187;28;20038;-78
2023/10/27 11:11:00;;;;;;;1999.90;999.90;;;10.10;99.90;;;;;;4973086;28;20046;-78
2023/10/27 11:13:27;;;;;;;1999.90;999.90;;;10.10;99.90;;;;;;4973130;28;20442;-79
2023/10/27 11:15:52;;;;;;;1999.90;999.90;;;10.10;99.90;;;;;;4973094;28;20042;-78
2023/10/27 11:18:18;;;;;;;1999.90;999.90;;;10.20;99.90;;;;;;4973034;28;20043;-79
2023/10/27 11:20:44;;;;;;;1999.90;999.90;;;10.20;99.90;;;;;;4972898;28;20055;-79
2023/10/27 11:23:12;;;;;;;1999.90;999.90;;;10.20;99.90;;;;;;4973329;28;20565;-79
2023/10/27 11:25:42;;;;;;;1999.90;999.90;;;10.20;99.90;;;;;;4973215;28;20387;-77
2023/10/27 11:28:20;;;;;;;1999.90;999.90;;;10.20;99.90;;;;;;4973002;28;20506;-79
2023/10/27 11:31:01;;;;;;;1999.90;999.90;;;10.20;99.90;;;;;;4972809;28;20046;-78
2023/10/27 11:33:28;;;;;;;1999.90;999.90;;;10.30;99.90;;;;;;4973740;28;20042;-79
2023/10/27 11:35:57;;;;;;;1999.90;999.90;;;10.20;99.90;;;;;;4973333;28;20042;-78
2023/10/27 11:38:23;;;;;;;1999.90;999.90;;;10.20;99.90;;;;;;4974167;28;20041;-79
2023/10/27 11:40:50;;;;;;;1999.90;999.90;;;10.20;99.90;;;;;;4972777;28;20054;-79
2023/10/27 11:43:16;;;;;;;1999.90;999.90;;;10.20;99.90;;;;;;4972854;28;20054;-79
2023/10/27 11:45:44;;;;;;;1999.90;999.90;;;10.20;99.90;;;;;;4972802;28;20049;-78
2023/10/27 11:48:10;;;;;;;1999.90;999.90;;;10.20;99.90;;;;;;4975038;28;20089;-78
2023/10/27 11:50:36;;;;;;;1999.90;999.90;;;10.30;99.90;;;;;;4978232;28;20384;-79
2023/10/27 11:53:02;;;;;;;1999.90;999.90;;;10.30;99.90;;;;;;4976735;28;20127;-79
2023/10/27 11:55:27;;;;;;;1999.90;999.90;;;10.30;99.90;;;;;;4976677;28;20050;-79
2023/10/27 11:57:53;;;;;;;1999.90;999.90;;;10.20;99.90;;;;;;4978200;28;20094;-78
2023/10/27 12:00:19;;;;;;;1999.90;999.90;;;10.30;99.90;;;;;;4976948;28;20050;-78
2023/10/27 12:02:44;;;;;;;1999.90;999.90;;;10.30;99.90;;;;;;4976873;28;20049;-78
2023/10/27 12:05:10;;;;;;;1999.90;999.90;;;10.20;99.90;;;;;;4976584;28;20105;-79
2023/10/27 12:07:35;;;;;;;1999.90;999.90;;;10.20;99.90;;;;;;4976790;28;20082;-78
2023/10/27 12:10:01;;;;;;;1999.90;999.90;;;10.20;99.90;;;;;;4976702;28;20133;-77
2023/10/27 12:12:28;;;;;;;1999.90;999.90;;;10.30;99.90;;;;;;4976571;28;20372;-78
2023/10/27 12:14:54;;;;;;;1999.90;999.90;;;10.30;99.90;;;;;;4976630;28;20065;-78
2023/10/27 12:17:20;;;;;;;1999.90;999.90;;;10.30;99.90;;;;;;4976217;28;20042;-78
2023/10/27 12:19:45;;;;;;;1999.90;999.90;;;10.30;99.90;;;;;;4976470;28;20085;-78
2023/10/27 12:22:11;;;;;;;1999.90;999.90;;;10.30;99.90;;;;;;4960116;28;20035;-78
2023/10/27 12:24:36;;;;;;;1999.90;999.90;;;10.30;99.90;;;;;;4976204;28;20091;-78
2023/10/27 12:27:04;;;;;;;1999.90;999.90;;;10.30;99.90;;;;;;4976090;28;20047;-78
2023/10/27 12:29:30;;;;;;;1999.90;999.90;;;10.30;99.90;;;;;;4976127;28;20499;-78
2023/10/27 12:31:55;;;;;;;1999.90;999.90;;;10.30;99.90;;;;;;4976295;28;20050;-80
2023/10/27 12:34:21;;;;;;;1999.90;999.90;;;10.30;99.90;;;;;;4976066;28;20042;-78
2023/10/27 12:36:46;;;;;;;1999.90;999.90;;;10.30;99.90;;;;;;4976002;28;20047;-79
2023/10/27 12:39:12;;;;;;;1999.90;999.90;;;10.30;99.90;;;;;;4975925;28;20074;-79
2023/10/27 12:41:38;;;;;;;1999.90;999.90;;;10.30;99.90;;;;;;4976267;28;20043;-79
2023/10/27 12:44:04;;;;;;;1999.90;999.90;;;10.30;99.90;;;;;;4976164;28;20043;-79
2023/10/27 12:46:29;;;;;;;1999.90;999.90;;;10.30;99.90;;;;;;4975855;28;20051;-79
2023/10/27 12:48:55;;;;;;;1999.90;999.90;;;10.30;99.90;;;;;;4975809;28;20039;-79
2023/10/27 12:51:22;;;;;;;1999.90;999.90;;;10.30;99.90;;;;;;4975537;28;20039;-79
2023/10/27 12:53:47;;;;;;;1999.90;999.90;;;10.30;99.90;;;;;;4977514;28;20088;-79
2023/10/27 12:56:14;;;;;;;1999.90;999.90;;;10.30;99.90;;;;;;4975902;28;20422;-79
2023/10/27 12:58:41;;;;;;;1999.90;999.90;;;10.30;99.90;;;;;;4977178;28;20042;-79
2023/10/27 13:01:06;;;;;;;1999.90;999.90;;;10.30;99.90;;;;;;4958150;28;20398;-78
2023/10/27 13:03:32;;;;;;;1999.90;999.90;;;10.40;99.90;;;;;;4975767;28;20060;-78
2023/10/27 13:05:58;;;;;;;1999.90;999.90;;;10.40;99.90;;;;;;4975510;28;20042;-79
2023/10/27 13:08:23;;;;;;;1999.90;999.90;;;10.40;99.90;;;;;;4975561;28;20039;-79
2023/10/27 13:10:49;;;;;;;1999.90;999.90;;;10.40;99.90;;;;;;4975692;28;20039;-79
2023/10/27 13:13:14;;;;;;;1999.90;999.90;;;10.40;99.90;;;;;;4975410;28;20039;-80
2023/10/27 13:15:40;;;;;;;1999.90;999.90;;;10.40;99.90;;;;;;4975500;28;20078;-79
2023/10/27 13:18:06;;;;;;;1999.90;999.90;;;10.40;99.90;;;;;;4976637;28;20115;-79
2023/10/27 13:20:32;;;;;;;1999.90;999.90;;;10.40;99.90;;;;;;4975197;28;20098;-79
2023/10/27 13:22:58;;;;;;;1999.90;999.90;;;10.40;99.90;;;;;;4975209;28;20078;-78
2023/10/27 13:25:25;;;;;;;1999.90;999.90;;;10.40;99.90;;;;;;4975267;28;20081;-79
2023/10/27 13:27:52;;;;;;;1999.90;999.90;;;10.40;99.90;;;;;;4975223;28;20054;-78
2023/10/27 13:30:19;;;;;;;1999.90;999.90;;;10.40;99.90;;;;;;4958999;28;20475;-79
2023/10/27 13:32:51;;;;;;;1999.90;999.90;;;10.40;99.90;;;;;;4975118;28;20054;-80
2023/10/27 13:35:21;;;;;;;1999.90;999.90;;;10.40;99.90;;;;;;4976659;28;20070;-78
2023/10/27 13:37:47;;;;;;;1999.90;999.90;;;10.40;99.90;;;;;;4975315;28;20487;-79
2023/10/27 13:40:14;;;;;;;1999.90;999.90;;;10.40;99.90;;;;;;4974974;28;20050;-78
2023/10/27 13:42:40;;;;;;;1999.90;999.90;;;10.40;99.90;;;;;;4975340;28;20411;-79
2023/10/27 13:45:06;;;;;;;1999.90;999.90;;;10.40;99.90;;;;;;4974891;28;20047;-80
2023/10/27 13:47:32;;;;;;;1999.90;999.90;;;10.40;99.90;;;;;;4974928;28;20070;-79
2023/10/27 13:49:58;;;;;;;1999.90;999.90;;;10.50;99.90;;;;;;4974937;28;20126;-79
2023/10/27 13:52:24;;;;;;;1999.90;999.90;;;10.50;99.90;;;;;;4974863;28;20129;-79
2023/10/27 13:54:50;;;;;;;1999.90;999.90;;;10.50;99.90;;;;;;4974875;28;20065;-79
2023/10/27 13:57:16;;;;;;;1999.90;999.90;;;10.50;99.90;;;;;;4975148;28;20070;-79
2023/10/27 13:59:42;;;;;;;1999.90;999.90;;;10.50;99.90;;;;;;4976084;28;20038;-79
2023/10/27 14:02:07;;;;;;;1999.90;999.90;;;10.50;99.90;;;;;;4958370;28;20126;-79
2023/10/27 14:04:34;;;;;;;1999.90;999.90;;;10.50;99.90;;;;;;4974516;28;20042;-78
2023/10/27 14:07:00;;;;;;;1999.90;999.90;;;10.50;99.90;;;;;;4958295;28;20038;-79
2023/10/27 14:09:26;;;;;;;1999.90;999.90;;;10.50;99.90;;;;;;4974815;28;20125;-79
2023/10/27 14:11:52;;;;;;;1999.90;999.90;;;10.50;99.90;;;;;;4958179;28;20555;-79
2023/10/27 14:14:20;;;;;;;1999.90;999.90;;;10.50;99.90;;;;;;4974394;28;20047;-79
2023/10/27 14:16:49;;;;;;;1999.90;999.90;;;10.50;99.90;;;;;;4974278;28;20055;-78
2023/10/27 14:19:15;;;;;;;1999.90;999.90;;;10.50;99.90;;;;;;4974247;28;20495;-78
2023/10/27 14:21:46;;;;;;;1999.90;999.90;;;10.50;99.90;;;;;;4975599;28;20046;-78
2023/10/27 14:24:12;;;;;;;1999.90;999.90;;;10.50;99.90;;;;;;4974285;28;20035;-79
2023/10/27 14:26:38;;;;;;;1999.90;999.90;;;10.50;99.90;;;;;;4974357;28;20182;-79
2023/10/27 14:29:06;;;;;;;1999.90;999.90;;;10.50;99.90;;;;;;4982755;28;20073;-79
2023/10/27 14:31:32;;;;;;;1999.90;999.90;;;10.50;99.90;;;;;;4977180;28;20048;-78
2023/10/27 14:33:59;;;;;;;1999.90;999.90;;;10.50;99.90;;;;;;4993366;28;20077;-79
2023/10/27 14:36:26;;;;;;;1999.90;999.90;;;10.50;99.90;;;;;;4994398;28;20513;-78
2023/10/27 14:38:52;;;;;;;1999.90;999.90;;;10.50;99.90;;;;;;4994589;28;20371;-79
2023/10/27 14:41:18;;;;;;;1999.90;999.90;;;10.50;99.90;;;;;;4993262;28;20104;-78
2023/10/27 14:43:44;;;;;;;1999.90;999.90;;;10.50;99.90;;;;;;4993164;28;20057;-79
2023/10/27 14:46:11;;;;;;;1999.90;999.90;;;10.50;99.90;;;;;;4994280;28;20038;-78
2023/10/27 14:48:40;;;;;;;1999.90;999.90;;;10.50;99.90;;;;;;4994106;28;20034;-78
2023/10/27 14:51:10;;;;;;;1999.90;999.90;;;10.50;99.90;;;;;;4992993;28;20042;-78
2023/10/27 14:53:36;;;;;;;1999.90;999.90;;;10.50;99.90;;;;;;4993578;28;20458;-79
2023/10/27 14:56:04;;;;;;;1999.90;999.90;;;10.50;99.90;;;;;;4993033;28;20073;-79
2023/10/27 14:58:30;;;;;;;1999.90;999.90;;;10.50;99.90;;;;;;4993069;28;20046;-79
2023/10/27 15:01:07;;;;;;;1999.90;999.90;;;10.50;99.90;;;;;;4992801;28;20042;-79
2023/10/27 15:03:36;;;;;;;1999.90;999.90;;;10.50;99.90;;;;;;4993017;28;20406;-79
2023/10/27 15:06:06;;;;;;;1999.90;999.90;;;10.50;99.90;;;;;;4976704;28;20117;-79